sensor_id;sensor_type;location;lat;lon;timestamp;P1;durP1;ratioP1;P2;durP2;ratioP2
21786;SDS011;11055;50.870;4.316;2023-04-24T00:00:04;20.23;;;13.63;;
21786;SDS011;11055;50.870;4.316;2023-04-24T00:02:39;22.98;;;12.68;;
21786;SDS011;11055;50.870;4.316;2023-04-24T00:05:05;22.33;;;13.43;;
21786;SDS011;11055;50.870;4.316;2023-04-24T00:07:31;20.52;;;12.60;;
21786;SDS011;11055;50.870;4.316;2023-04-24T00:09:58;20.55;;;12.90;;
21786;SDS011;11055;50.870;4.316;2023-04-24T00:12:25;19.15;;;13.40;;
21786;SDS011;11055;50.870;4.316;2023-04-24T00:14:51;16.63;;;13.02;;
21786;SDS011;11055;50.870;4.316;2023-04-24T00:17:17;18.25;;;13.70;;
21786;SDS011;11055;50.870;4.316;2023-04-24T00:19:47;23.00;;;13.93;;
21786;SDS011;11055;50.870;4.316;2023-04-24T00:22:13;18.90;;;12.98;;
21786;SDS011;11055;50.870;4.316;2023-04-24T00:24:39;21.98;;;13.52;;
21786;SDS011;11055;50.870;4.316;2023-04-24T00:27:05;22.60;;;14.10;;
21786;SDS011;11055;50.870;4.316;2023-04-24T00:29:31;20.60;;;13.43;;
21786;SDS011;11055;50.870;4.316;2023-04-24T00:31:57;19.75;;;13.20;;
21786;SDS011;11055;50.870;4.316;2023-04-24T00:34:23;22.52;;;13.55;;
21786;SDS011;11055;50.870;4.316;2023-04-24T00:36:48;18.90;;;13.23;;
21786;SDS011;11055;50.870;4.316;2023-04-24T00:39:17;20.92;;;13.55;;
21786;SDS011;11055;50.870;4.316;2023-04-24T00:41:43;20.15;;;13.27;;
21786;SDS011;11055;50.870;4.316;2023-04-24T00:44:10;21.52;;;13.68;;
21786;SDS011;11055;50.870;4.316;2023-04-24T00:46:36;27.50;;;15.65;;
21786;SDS011;11055;50.870;4.316;2023-04-24T00:49:02;23.33;;;14.50;;
21786;SDS011;11055;50.870;4.316;2023-04-24T00:51:29;20.88;;;14.40;;
21786;SDS011;11055;50.870;4.316;2023-04-24T00:53:55;21.88;;;14.32;;
21786;SDS011;11055;50.870;4.316;2023-04-24T00:56:21;24.50;;;14.00;;
21786;SDS011;11055;50.870;4.316;2023-04-24T00:58:48;19.95;;;14.50;;
21786;SDS011;11055;50.870;4.316;2023-04-24T01:01:14;18.65;;;13.60;;
21786;SDS011;11055;50.870;4.316;2023-04-24T01:03:40;22.55;;;14.00;;
21786;SDS011;11055;50.870;4.316;2023-04-24T01:06:06;22.85;;;14.00;;
21786;SDS011;11055;50.870;4.316;2023-04-24T01:08:32;19.73;;;14.00;;
21786;SDS011;11055;50.870;4.316;2023-04-24T01:10:59;21.73;;;14.32;;
21786;SDS011;11055;50.870;4.316;2023-04-24T01:13:29;21.70;;;14.55;;
21786;SDS011;11055;50.870;4.316;2023-04-24T01:15:54;17.77;;;14.13;;
21786;SDS011;11055;50.870;4.316;2023-04-24T01:18:20;21.55;;;14.80;;
21786;SDS011;11055;50.870;4.316;2023-04-24T01:20:46;21.60;;;13.82;;
21786;SDS011;11055;50.870;4.316;2023-04-24T01:23:15;21.25;;;14.85;;
21786;SDS011;11055;50.870;4.316;2023-04-24T01:25:41;20.42;;;13.98;;
21786;SDS011;11055;50.870;4.316;2023-04-24T01:28:07;19.95;;;14.27;;
21786;SDS011;11055;50.870;4.316;2023-04-24T01:30:33;17.48;;;13.25;;
21786;SDS011;11055;50.870;4.316;2023-04-24T01:32:59;20.50;;;13.35;;
21786;SDS011;11055;50.870;4.316;2023-04-24T01:35:25;20.00;;;13.02;;
21786;SDS011;11055;50.870;4.316;2023-04-24T01:37:51;19.58;;;13.38;;
21786;SDS011;11055;50.870;4.316;2023-04-24T01:40:17;19.02;;;13.32;;
21786;SDS011;11055;50.870;4.316;2023-04-24T01:42:43;20.58;;;12.50;;
21786;SDS011;11055;50.870;4.316;2023-04-24T01:45:10;16.10;;;11.40;;
21786;SDS011;11055;50.870;4.316;2023-04-24T01:47:37;18.27;;;11.27;;
21786;SDS011;11055;50.870;4.316;2023-04-24T01:50:03;13.75;;;11.75;;
21786;SDS011;11055;50.870;4.316;2023-04-24T01:52:32;18.08;;;12.00;;
21786;SDS011;11055;50.870;4.316;2023-04-24T01:55:00;16.45;;;11.55;;
21786;SDS011;11055;50.870;4.316;2023-04-24T01:57:26;20.38;;;11.88;;
21786;SDS011;11055;50.870;4.316;2023-04-24T01:59:52;18.55;;;12.35;;
21786;SDS011;11055;50.870;4.316;2023-04-24T02:02:17;19.33;;;12.65;;
21786;SDS011;11055;50.870;4.316;2023-04-24T02:04:43;16.85;;;11.93;;
21786;SDS011;11055;50.870;4.316;2023-04-24T02:07:09;17.25;;;11.80;;
21786;SDS011;11055;50.870;4.316;2023-04-24T02:09:35;14.95;;;12.00;;
21786;SDS011;11055;50.870;4.316;2023-04-24T02:12:00;15.07;;;12.02;;
21786;SDS011;11055;50.870;4.316;2023-04-24T02:14:26;15.43;;;12.38;;
21786;SDS011;11055;50.870;4.316;2023-04-24T02:16:52;19.15;;;12.35;;
21786;SDS011;11055;50.870;4.316;2023-04-24T02:19:18;17.20;;;12.27;;
21786;SDS011;11055;50.870;4.316;2023-04-24T02:21:44;15.15;;;11.80;;
21786;SDS011;11055;50.870;4.316;2023-04-24T02:24:10;15.90;;;11.85;;
21786;SDS011;11055;50.870;4.316;2023-04-24T02:26:35;18.75;;;12.30;;
21786;SDS011;11055;50.870;4.316;2023-04-24T02:29:01;12.55;;;11.10;;
21786;SDS011;11055;50.870;4.316;2023-04-24T02:31:27;14.80;;;11.13;;
21786;SDS011;11055;50.870;4.316;2023-04-24T02:33:52;15.05;;;10.93;;
21786;SDS011;11055;50.870;4.316;2023-04-24T02:36:18;18.05;;;12.43;;
21786;SDS011;11055;50.870;4.316;2023-04-24T02:38:44;16.60;;;12.70;;
21786;SDS011;11055;50.870;4.316;2023-04-24T02:41:10;17.30;;;12.00;;
21786;SDS011;11055;50.870;4.316;2023-04-24T02:43:36;18.13;;;12.75;;
21786;SDS011;11055;50.870;4.316;2023-04-24T02:46:01;17.48;;;12.23;;
21786;SDS011;11055;50.870;4.316;2023-04-24T02:48:27;18.25;;;13.02;;
21786;SDS011;11055;50.870;4.316;2023-04-24T02:50:53;17.25;;;11.65;;
21786;SDS011;11055;50.870;4.316;2023-04-24T02:53:19;15.45;;;11.13;;
21786;SDS011;11055;50.870;4.316;2023-04-24T02:55:45;19.65;;;12.98;;
21786;SDS011;11055;50.870;4.316;2023-04-24T02:58:11;18.02;;;12.40;;
21786;SDS011;11055;50.870;4.316;2023-04-24T03:00:39;18.77;;;12.77;;
21786;SDS011;11055;50.870;4.316;2023-04-24T03:03:05;17.63;;;12.20;;
21786;SDS011;11055;50.870;4.316;2023-04-24T03:05:31;18.02;;;13.27;;
21786;SDS011;11055;50.870;4.316;2023-04-24T03:07:57;17.77;;;13.35;;
21786;SDS011;11055;50.870;4.316;2023-04-24T03:10:23;16.70;;;11.40;;
21786;SDS011;11055;50.870;4.316;2023-04-24T03:12:49;13.18;;;10.95;;
21786;SDS011;11055;50.870;4.316;2023-04-24T03:15:15;17.33;;;11.30;;
21786;SDS011;11055;50.870;4.316;2023-04-24T03:17:40;17.73;;;11.55;;
21786;SDS011;11055;50.870;4.316;2023-04-24T03:20:06;19.40;;;11.98;;
21786;SDS011;11055;50.870;4.316;2023-04-24T03:22:35;17.50;;;11.20;;
21786;SDS011;11055;50.870;4.316;2023-04-24T03:25:01;15.27;;;10.73;;
21786;SDS011;11055;50.870;4.316;2023-04-24T03:27:27;14.35;;;10.90;;
21786;SDS011;11055;50.870;4.316;2023-04-24T03:29:53;13.40;;;10.90;;
21786;SDS011;11055;50.870;4.316;2023-04-24T03:32:20;14.30;;;10.50;;
21786;SDS011;11055;50.870;4.316;2023-04-24T03:34:49;13.82;;;9.40;;
21786;SDS011;11055;50.870;4.316;2023-04-24T03:37:15;14.73;;;10.43;;
21786;SDS011;11055;50.870;4.316;2023-04-24T03:39:42;11.48;;;8.95;;
21786;SDS011;11055;50.870;4.316;2023-04-24T03:42:08;10.55;;;8.98;;
21786;SDS011;11055;50.870;4.316;2023-04-24T03:44:34;13.98;;;9.90;;
21786;SDS011;11055;50.870;4.316;2023-04-24T03:47:00;12.02;;;10.05;;
21786;SDS011;11055;50.870;4.316;2023-04-24T03:49:25;12.57;;;9.52;;
21786;SDS011;11055;50.870;4.316;2023-04-24T03:51:51;14.07;;;10.05;;
21786;SDS011;11055;50.870;4.316;2023-04-24T03:54:17;13.00;;;8.13;;
21786;SDS011;11055;50.870;4.316;2023-04-24T03:56:44;11.43;;;8.45;;
21786;SDS011;11055;50.870;4.316;2023-04-24T03:59:09;10.85;;;8.48;;
21786;SDS011;11055;50.870;4.316;2023-04-24T04:01:35;11.40;;;8.32;;
21786;SDS011;11055;50.870;4.316;2023-04-24T04:04:03;10.55;;;8.32;;
21786;SDS011;11055;50.870;4.316;2023-04-24T04:06:29;9.88;;;7.47;;
21786;SDS011;11055;50.870;4.316;2023-04-24T04:08:56;10.98;;;8.10;;
21786;SDS011;11055;50.870;4.316;2023-04-24T04:11:22;8.18;;;6.95;;
21786;SDS011;11055;50.870;4.316;2023-04-24T04:13:49;10.98;;;7.32;;
21786;SDS011;11055;50.870;4.316;2023-04-24T04:16:15;10.50;;;8.00;;
21786;SDS011;11055;50.870;4.316;2023-04-24T04:18:44;8.48;;;7.57;;
21786;SDS011;11055;50.870;4.316;2023-04-24T04:21:10;9.95;;;7.78;;
21786;SDS011;11055;50.870;4.316;2023-04-24T04:23:36;10.88;;;9.60;;
21786;SDS011;11055;50.870;4.316;2023-04-24T04:26:02;10.57;;;7.97;;
21786;SDS011;11055;50.870;4.316;2023-04-24T04:28:29;10.38;;;7.60;;
21786;SDS011;11055;50.870;4.316;2023-04-24T04:30:57;10.43;;;7.70;;
21786;SDS011;11055;50.870;4.316;2023-04-24T04:33:26;9.60;;;7.22;;
21786;SDS011;11055;50.870;4.316;2023-04-24T04:35:52;7.68;;;6.90;;
21786;SDS011;11055;50.870;4.316;2023-04-24T04:38:18;8.80;;;7.00;;
21786;SDS011;11055;50.870;4.316;2023-04-24T04:40:45;13.07;;;8.23;;
21786;SDS011;11055;50.870;4.316;2023-04-24T04:43:11;9.20;;;7.78;;
21786;SDS011;11055;50.870;4.316;2023-04-24T04:45:38;9.68;;;8.20;;
21786;SDS011;11055;50.870;4.316;2023-04-24T04:48:06;15.85;;;10.27;;
21786;SDS011;11055;50.870;4.316;2023-04-24T04:50:37;12.40;;;9.20;;
21786;SDS011;11055;50.870;4.316;2023-04-24T04:53:03;14.15;;;10.82;;
21786;SDS011;11055;50.870;4.316;2023-04-24T04:55:28;16.70;;;10.85;;
21786;SDS011;11055;50.870;4.316;2023-04-24T04:57:55;14.95;;;11.30;;
21786;SDS011;11055;50.870;4.316;2023-04-24T05:00:21;15.18;;;9.98;;
21786;SDS011;11055;50.870;4.316;2023-04-24T05:02:48;18.35;;;11.07;;
21786;SDS011;11055;50.870;4.316;2023-04-24T05:05:14;16.52;;;12.15;;
21786;SDS011;11055;50.870;4.316;2023-04-24T05:07:42;19.10;;;12.90;;
21786;SDS011;11055;50.870;4.316;2023-04-24T05:10:07;18.27;;;12.88;;
21786;SDS011;11055;50.870;4.316;2023-04-24T05:12:33;22.73;;;14.50;;
21786;SDS011;11055;50.870;4.316;2023-04-24T05:14:59;19.65;;;14.52;;
21786;SDS011;11055;50.870;4.316;2023-04-24T05:17:26;22.55;;;14.82;;
21786;SDS011;11055;50.870;4.316;2023-04-24T05:19:53;19.08;;;13.63;;
21786;SDS011;11055;50.870;4.316;2023-04-24T05:22:19;21.23;;;12.85;;
21786;SDS011;11055;50.870;4.316;2023-04-24T05:24:46;19.38;;;13.50;;
21786;SDS011;11055;50.870;4.316;2023-04-24T05:27:12;17.40;;;13.25;;
21786;SDS011;11055;50.870;4.316;2023-04-24T05:29:38;19.52;;;13.05;;
21786;SDS011;11055;50.870;4.316;2023-04-24T05:32:03;18.73;;;12.93;;
21786;SDS011;11055;50.870;4.316;2023-04-24T05:34:29;20.55;;;13.73;;
21786;SDS011;11055;50.870;4.316;2023-04-24T05:36:55;23.08;;;13.30;;
21786;SDS011;11055;50.870;4.316;2023-04-24T05:39:20;17.35;;;13.63;;
21786;SDS011;11055;50.870;4.316;2023-04-24T05:41:46;18.58;;;13.60;;
21786;SDS011;11055;50.870;4.316;2023-04-24T05:44:13;23.95;;;14.52;;
21786;SDS011;11055;50.870;4.316;2023-04-24T05:46:41;18.90;;;12.75;;
21786;SDS011;11055;50.870;4.316;2023-04-24T05:49:06;21.52;;;13.48;;
21786;SDS011;11055;50.870;4.316;2023-04-24T05:51:32;24.30;;;13.05;;
21786;SDS011;11055;50.870;4.316;2023-04-24T05:53:58;19.20;;;14.50;;
21786;SDS011;11055;50.870;4.316;2023-04-24T05:56:25;18.15;;;14.20;;
21786;SDS011;11055;50.870;4.316;2023-04-24T05:58:50;17.75;;;13.23;;
21786;SDS011;11055;50.870;4.316;2023-04-24T06:01:16;19.88;;;13.65;;
21786;SDS011;11055;50.870;4.316;2023-04-24T06:03:43;22.05;;;13.90;;
21786;SDS011;11055;50.870;4.316;2023-04-24T06:06:08;20.75;;;13.75;;
21786;SDS011;11055;50.870;4.316;2023-04-24T06:08:35;21.08;;;14.32;;
21786;SDS011;11055;50.870;4.316;2023-04-24T06:11:01;21.58;;;14.43;;
21786;SDS011;11055;50.870;4.316;2023-04-24T06:13:26;21.73;;;14.82;;
21786;SDS011;11055;50.870;4.316;2023-04-24T06:15:52;22.25;;;13.57;;
21786;SDS011;11055;50.870;4.316;2023-04-24T06:18:18;26.20;;;15.57;;
21786;SDS011;11055;50.870;4.316;2023-04-24T06:20:44;22.20;;;16.38;;
21786;SDS011;11055;50.870;4.316;2023-04-24T06:23:11;26.33;;;16.27;;
21786;SDS011;11055;50.870;4.316;2023-04-24T06:25:37;29.65;;;17.60;;
21786;SDS011;11055;50.870;4.316;2023-04-24T06:28:03;29.63;;;17.30;;
21786;SDS011;11055;50.870;4.316;2023-04-24T06:30:29;26.55;;;16.00;;
21786;SDS011;11055;50.870;4.316;2023-04-24T06:32:55;28.95;;;17.67;;
21786;SDS011;11055;50.870;4.316;2023-04-24T06:35:21;26.90;;;18.92;;
21786;SDS011;11055;50.870;4.316;2023-04-24T06:37:47;25.52;;;17.92;;
21786;SDS011;11055;50.870;4.316;2023-04-24T06:40:12;30.25;;;18.02;;
21786;SDS011;11055;50.870;4.316;2023-04-24T06:42:38;30.42;;;18.00;;
21786;SDS011;11055;50.870;4.316;2023-04-24T06:45:04;24.83;;;18.58;;
21786;SDS011;11055;50.870;4.316;2023-04-24T06:47:30;33.40;;;18.75;;
21786;SDS011;11055;50.870;4.316;2023-04-24T06:49:56;30.02;;;19.15;;
21786;SDS011;11055;50.870;4.316;2023-04-24T06:52:22;30.75;;;17.45;;
21786;SDS011;11055;50.870;4.316;2023-04-24T06:54:47;23.05;;;16.92;;
21786;SDS011;11055;50.870;4.316;2023-04-24T06:57:13;24.38;;;18.15;;
21786;SDS011;11055;50.870;4.316;2023-04-24T06:59:41;36.58;;;21.48;;
21786;SDS011;11055;50.870;4.316;2023-04-24T07:02:07;25.00;;;17.02;;
21786;SDS011;11055;50.870;4.316;2023-04-24T07:04:32;28.05;;;18.83;;
21786;SDS011;11055;50.870;4.316;2023-04-24T07:06:58;26.58;;;17.90;;
21786;SDS011;11055;50.870;4.316;2023-04-24T07:09:24;30.45;;;16.45;;
21786;SDS011;11055;50.870;4.316;2023-04-24T07:11:53;31.85;;;18.08;;
21786;SDS011;11055;50.870;4.316;2023-04-24T07:14:21;27.02;;;17.90;;
21786;SDS011;11055;50.870;4.316;2023-04-24T07:16:47;26.55;;;15.85;;
21786;SDS011;11055;50.870;4.316;2023-04-24T07:19:13;25.98;;;16.30;;
21786;SDS011;11055;50.870;4.316;2023-04-24T07:21:39;25.73;;;14.65;;
21786;SDS011;11055;50.870;4.316;2023-04-24T07:24:05;22.05;;;15.07;;
21786;SDS011;11055;50.870;4.316;2023-04-24T07:26:34;20.15;;;13.00;;
21786;SDS011;11055;50.870;4.316;2023-04-24T07:29:00;26.35;;;14.07;;
21786;SDS011;11055;50.870;4.316;2023-04-24T07:31:25;24.70;;;13.90;;
21786;SDS011;11055;50.870;4.316;2023-04-24T07:33:51;19.80;;;13.00;;
21786;SDS011;11055;50.870;4.316;2023-04-24T07:36:17;21.02;;;14.07;;
21786;SDS011;11055;50.870;4.316;2023-04-24T07:38:46;17.00;;;11.07;;
21786;SDS011;11055;50.870;4.316;2023-04-24T07:41:13;13.23;;;9.48;;
21786;SDS011;11055;50.870;4.316;2023-04-24T07:43:39;13.60;;;10.70;;
21786;SDS011;11055;50.870;4.316;2023-04-24T07:46:05;18.20;;;11.10;;
21786;SDS011;11055;50.870;4.316;2023-04-24T07:48:32;19.67;;;12.13;;
21786;SDS011;11055;50.870;4.316;2023-04-24T07:50:57;19.33;;;13.00;;
21786;SDS011;11055;50.870;4.316;2023-04-24T07:53:23;25.60;;;14.73;;
21786;SDS011;11055;50.870;4.316;2023-04-24T07:55:49;22.85;;;14.52;;
21786;SDS011;11055;50.870;4.316;2023-04-24T07:58:15;26.27;;;16.55;;
21786;SDS011;11055;50.870;4.316;2023-04-24T08:00:41;27.83;;;15.90;;
21786;SDS011;11055;50.870;4.316;2023-04-24T08:03:06;21.45;;;13.85;;
21786;SDS011;11055;50.870;4.316;2023-04-24T08:05:32;19.67;;;11.50;;
21786;SDS011;11055;50.870;4.316;2023-04-24T08:07:58;19.33;;;12.65;;
21786;SDS011;11055;50.870;4.316;2023-04-24T08:10:24;24.40;;;15.43;;
21786;SDS011;11055;50.870;4.316;2023-04-24T08:12:50;24.92;;;12.38;;
21786;SDS011;11055;50.870;4.316;2023-04-24T08:15:16;22.67;;;14.90;;
21786;SDS011;11055;50.870;4.316;2023-04-24T08:17:42;19.45;;;10.60;;
21786;SDS011;11055;50.870;4.316;2023-04-24T08:20:08;19.38;;;11.30;;
21786;SDS011;11055;50.870;4.316;2023-04-24T08:22:41;18.05;;;10.75;;
21786;SDS011;11055;50.870;4.316;2023-04-24T08:25:08;16.90;;;9.40;;
21786;SDS011;11055;50.870;4.316;2023-04-24T08:27:35;22.77;;;10.30;;
21786;SDS011;11055;50.870;4.316;2023-04-24T08:30:04;21.60;;;9.85;;
21786;SDS011;11055;50.870;4.316;2023-04-24T08:32:30;19.35;;;9.10;;
21786;SDS011;11055;50.870;4.316;2023-04-24T08:34:56;17.38;;;8.73;;
21786;SDS011;11055;50.870;4.316;2023-04-24T08:37:23;18.00;;;9.48;;
21786;SDS011;11055;50.870;4.316;2023-04-24T08:39:49;19.13;;;8.45;;
21786;SDS011;11055;50.870;4.316;2023-04-24T08:42:15;14.05;;;7.15;;
21786;SDS011;11055;50.870;4.316;2023-04-24T08:44:43;16.40;;;7.65;;
21786;SDS011;11055;50.870;4.316;2023-04-24T08:47:09;11.00;;;5.90;;
21786;SDS011;11055;50.870;4.316;2023-04-24T08:49:36;11.88;;;5.60;;
21786;SDS011;11055;50.870;4.316;2023-04-24T08:52:03;12.70;;;6.47;;
21786;SDS011;11055;50.870;4.316;2023-04-24T08:54:30;14.30;;;6.60;;
21786;SDS011;11055;50.870;4.316;2023-04-24T08:57:00;12.65;;;7.07;;
21786;SDS011;11055;50.870;4.316;2023-04-24T08:59:28;12.65;;;6.10;;
21786;SDS011;11055;50.870;4.316;2023-04-24T09:01:56;12.50;;;6.00;;
21786;SDS011;11055;50.870;4.316;2023-04-24T09:04:23;13.68;;;5.82;;
21786;SDS011;11055;50.870;4.316;2023-04-24T09:06:56;12.52;;;5.78;;
21786;SDS011;11055;50.870;4.316;2023-04-24T09:09:25;13.45;;;5.45;;
21786;SDS011;11055;50.870;4.316;2023-04-24T09:11:54;8.63;;;5.60;;
21786;SDS011;11055;50.870;4.316;2023-04-24T09:14:21;12.02;;;5.25;;
21786;SDS011;11055;50.870;4.316;2023-04-24T09:16:50;12.18;;;5.07;;
21786;SDS011;11055;50.870;4.316;2023-04-24T09:19:16;10.77;;;5.20;;
21786;SDS011;11055;50.870;4.316;2023-04-24T09:21:42;10.93;;;5.03;;
21786;SDS011;11055;50.870;4.316;2023-04-24T09:24:17;10.82;;;4.60;;
21786;SDS011;11055;50.870;4.316;2023-04-24T09:26:47;10.07;;;4.47;;
21786;SDS011;11055;50.870;4.316;2023-04-24T09:29:17;10.60;;;4.85;;
21786;SDS011;11055;50.870;4.316;2023-04-24T09:31:44;11.30;;;4.93;;
21786;SDS011;11055;50.870;4.316;2023-04-24T09:34:10;10.15;;;5.07;;
21786;SDS011;11055;50.870;4.316;2023-04-24T09:39:07;9.10;;;4.25;;
21786;SDS011;11055;50.870;4.316;2023-04-24T09:41:35;6.38;;;4.20;;
21786;SDS011;11055;50.870;4.316;2023-04-24T09:44:17;5.78;;;3.97;;
21786;SDS011;11055;50.870;4.316;2023-04-24T09:49:24;7.40;;;3.42;;
21786;SDS011;11055;50.870;4.316;2023-04-24T09:52:03;8.57;;;4.35;;
21786;SDS011;11055;50.870;4.316;2023-04-24T09:54:29;10.35;;;3.92;;
21786;SDS011;11055;50.870;4.316;2023-04-24T09:56:55;9.75;;;4.20;;
21786;SDS011;11055;50.870;4.316;2023-04-24T09:59:21;10.18;;;4.00;;
21786;SDS011;11055;50.870;4.316;2023-04-24T10:01:47;8.80;;;4.07;;
21786;SDS011;11055;50.870;4.316;2023-04-24T10:06:48;8.77;;;3.80;;
21786;SDS011;11055;50.870;4.316;2023-04-24T10:09:15;7.85;;;3.70;;
21786;SDS011;11055;50.870;4.316;2023-04-24T10:11:43;8.05;;;3.88;;
21786;SDS011;11055;50.870;4.316;2023-04-24T10:14:13;9.70;;;3.83;;
21786;SDS011;11055;50.870;4.316;2023-04-24T10:16:41;8.93;;;3.53;;
21786;SDS011;11055;50.870;4.316;2023-04-24T10:19:08;8.68;;;4.00;;
21786;SDS011;11055;50.870;4.316;2023-04-24T10:21:34;8.85;;;3.92;;
21786;SDS011;11055;50.870;4.316;2023-04-24T10:24:02;7.97;;;3.65;;
21786;SDS011;11055;50.870;4.316;2023-04-24T10:26:32;6.20;;;4.05;;
21786;SDS011;11055;50.870;4.316;2023-04-24T10:28:59;9.48;;;4.13;;
21786;SDS011;11055;50.870;4.316;2023-04-24T10:31:25;7.07;;;4.13;;
21786;SDS011;11055;50.870;4.316;2023-04-24T10:33:52;8.48;;;4.30;;
21786;SDS011;11055;50.870;4.316;2023-04-24T10:36:19;9.15;;;4.32;;
21786;SDS011;11055;50.870;4.316;2023-04-24T10:38:48;7.97;;;4.00;;
21786;SDS011;11055;50.870;4.316;2023-04-24T10:41:15;11.00;;;4.32;;
21786;SDS011;11055;50.870;4.316;2023-04-24T10:43:45;8.40;;;4.30;;
21786;SDS011;11055;50.870;4.316;2023-04-24T10:46:16;8.25;;;4.32;;
21786;SDS011;11055;50.870;4.316;2023-04-24T10:48:53;6.80;;;4.10;;
21786;SDS011;11055;50.870;4.316;2023-04-24T10:51:21;9.30;;;4.75;;
21786;SDS011;11055;50.870;4.316;2023-04-24T10:53:48;8.77;;;4.63;;
21786;SDS011;11055;50.870;4.316;2023-04-24T10:56:15;8.57;;;4.47;;
21786;SDS011;11055;50.870;4.316;2023-04-24T10:58:49;8.85;;;4.72;;
21786;SDS011;11055;50.870;4.316;2023-04-24T11:01:30;9.52;;;4.75;;
21786;SDS011;11055;50.870;4.316;2023-04-24T11:04:00;8.50;;;4.78;;
21786;SDS011;11055;50.870;4.316;2023-04-24T11:06:34;8.40;;;4.75;;
21786;SDS011;11055;50.870;4.316;2023-04-24T11:09:05;6.55;;;4.40;;
21786;SDS011;11055;50.870;4.316;2023-04-24T11:11:33;9.07;;;4.90;;
21786;SDS011;11055;50.870;4.316;2023-04-24T11:14:01;7.60;;;4.45;;
21786;SDS011;11055;50.870;4.316;2023-04-24T11:16:30;6.60;;;4.60;;
21786;SDS011;11055;50.870;4.316;2023-04-24T11:19:10;10.43;;;5.53;;
21786;SDS011;11055;50.870;4.316;2023-04-24T11:26:56;8.02;;;4.65;;
21786;SDS011;11055;50.870;4.316;2023-04-24T11:29:23;7.15;;;4.65;;
21786;SDS011;11055;50.870;4.316;2023-04-24T11:32:14;7.45;;;4.50;;
21786;SDS011;11055;50.870;4.316;2023-04-24T11:35:29;7.72;;;4.53;;
21786;SDS011;11055;50.870;4.316;2023-04-24T11:37:34;8.20;;;4.15;;
21786;SDS011;11055;50.870;4.316;2023-04-24T11:42:36;9.57;;;4.72;;
21786;SDS011;11055;50.870;4.316;2023-04-24T11:45:23;7.13;;;4.72;;
21786;SDS011;11055;50.870;4.316;2023-04-24T11:47:53;7.53;;;4.97;;
21786;SDS011;11055;50.870;4.316;2023-04-24T11:50:22;9.90;;;5.40;;
21786;SDS011;11055;50.870;4.316;2023-04-24T11:52:50;6.15;;;4.70;;
21786;SDS011;11055;50.870;4.316;2023-04-24T11:57:43;7.38;;;4.72;;
21786;SDS011;11055;50.870;4.316;2023-04-24T12:00:15;7.60;;;4.60;;
21786;SDS011;11055;50.870;4.316;2023-04-24T12:02:42;6.95;;;4.63;;
21786;SDS011;11055;50.870;4.316;2023-04-24T12:05:08;5.65;;;4.22;;
21786;SDS011;11055;50.870;4.316;2023-04-24T12:07:40;6.32;;;4.65;;
21786;SDS011;11055;50.870;4.316;2023-04-24T12:10:10;6.70;;;4.18;;
21786;SDS011;11055;50.870;4.316;2023-04-24T12:12:36;5.00;;;3.67;;
21786;SDS011;11055;50.870;4.316;2023-04-24T12:15:05;6.82;;;4.20;;
21786;SDS011;11055;50.870;4.316;2023-04-24T12:17:33;4.50;;;4.10;;
21786;SDS011;11055;50.870;4.316;2023-04-24T12:20:01;5.00;;;3.63;;
21786;SDS011;11055;50.870;4.316;2023-04-24T12:22:42;6.15;;;3.35;;
21786;SDS011;11055;50.870;4.316;2023-04-24T12:25:09;4.57;;;3.40;;
21786;SDS011;11055;50.870;4.316;2023-04-24T12:27:36;5.30;;;3.65;;
21786;SDS011;11055;50.870;4.316;2023-04-24T12:30:03;6.05;;;3.70;;
21786;SDS011;11055;50.870;4.316;2023-04-24T12:32:30;6.60;;;4.90;;
21786;SDS011;11055;50.870;4.316;2023-04-24T12:34:56;5.43;;;3.65;;
21786;SDS011;11055;50.870;4.316;2023-04-24T12:37:23;6.13;;;3.13;;
21786;SDS011;11055;50.870;4.316;2023-04-24T12:42:28;5.43;;;3.22;;
21786;SDS011;11055;50.870;4.316;2023-04-24T12:44:56;5.45;;;3.22;;
21786;SDS011;11055;50.870;4.316;2023-04-24T12:49:52;4.65;;;3.25;;
21786;SDS011;11055;50.870;4.316;2023-04-24T12:52:20;4.00;;;3.38;;
21786;SDS011;11055;50.870;4.316;2023-04-24T12:54:52;8.13;;;3.40;;
21786;SDS011;11055;50.870;4.316;2023-04-24T12:57:18;4.43;;;2.85;;
21786;SDS011;11055;50.870;4.316;2023-04-24T12:59:44;5.35;;;3.35;;
21786;SDS011;11055;50.870;4.316;2023-04-24T13:02:11;4.20;;;3.20;;
21786;SDS011;11055;50.870;4.316;2023-04-24T13:04:37;6.50;;;3.40;;
21786;SDS011;11055;50.870;4.316;2023-04-24T13:07:03;5.18;;;3.40;;
21786;SDS011;11055;50.870;4.316;2023-04-24T13:09:28;5.72;;;3.53;;
21786;SDS011;11055;50.870;4.316;2023-04-24T13:11:55;4.68;;;3.67;;
21786;SDS011;11055;50.870;4.316;2023-04-24T13:14:22;6.63;;;3.60;;
21786;SDS011;11055;50.870;4.316;2023-04-24T13:16:48;5.07;;;2.70;;
21786;SDS011;11055;50.870;4.316;2023-04-24T13:19:14;6.22;;;3.30;;
21786;SDS011;11055;50.870;4.316;2023-04-24T13:21:40;4.72;;;3.00;;
21786;SDS011;11055;50.870;4.316;2023-04-24T13:24:05;5.00;;;2.67;;
21786;SDS011;11055;50.870;4.316;2023-04-24T13:26:32;5.15;;;2.70;;
21786;SDS011;11055;50.870;4.316;2023-04-24T13:28:58;5.13;;;2.50;;
21786;SDS011;11055;50.870;4.316;2023-04-24T13:31:24;5.03;;;2.70;;
21786;SDS011;11055;50.870;4.316;2023-04-24T13:33:51;4.43;;;2.55;;
21786;SDS011;11055;50.870;4.316;2023-04-24T13:36:17;6.10;;;2.58;;
21786;SDS011;11055;50.870;4.316;2023-04-24T13:38:43;4.32;;;2.25;;
21786;SDS011;11055;50.870;4.316;2023-04-24T13:41:09;5.22;;;2.50;;
21786;SDS011;11055;50.870;4.316;2023-04-24T13:43:35;3.42;;;2.42;;
21786;SDS011;11055;50.870;4.316;2023-04-24T13:46:01;6.13;;;2.80;;
21786;SDS011;11055;50.870;4.316;2023-04-24T13:48:28;3.90;;;2.50;;
21786;SDS011;11055;50.870;4.316;2023-04-24T13:50:54;3.45;;;2.28;;
21786;SDS011;11055;50.870;4.316;2023-04-24T13:53:20;3.08;;;2.15;;
21786;SDS011;11055;50.870;4.316;2023-04-24T13:55:45;3.78;;;2.10;;
21786;SDS011;11055;50.870;4.316;2023-04-24T13:58:11;4.10;;;2.10;;
21786;SDS011;11055;50.870;4.316;2023-04-24T14:00:37;4.10;;;2.05;;
21786;SDS011;11055;50.870;4.316;2023-04-24T14:03:03;2.40;;;2.00;;
21786;SDS011;11055;50.870;4.316;2023-04-24T14:05:30;3.80;;;2.33;;
21786;SDS011;11055;50.870;4.316;2023-04-24T14:07:55;4.13;;;1.77;;
21786;SDS011;11055;50.870;4.316;2023-04-24T14:10:21;4.63;;;2.00;;
21786;SDS011;11055;50.870;4.316;2023-04-24T14:12:47;6.38;;;2.05;;
21786;SDS011;11055;50.870;4.316;2023-04-24T14:15:13;5.20;;;1.70;;
21786;SDS011;11055;50.870;4.316;2023-04-24T14:17:39;5.00;;;1.92;;
21786;SDS011;11055;50.870;4.316;2023-04-24T14:20:05;5.25;;;2.20;;
21786;SDS011;11055;50.870;4.316;2023-04-24T14:22:31;5.05;;;2.17;;
21786;SDS011;11055;50.870;4.316;2023-04-24T14:24:58;5.47;;;2.03;;
21786;SDS011;11055;50.870;4.316;2023-04-24T14:27:24;4.55;;;2.05;;
21786;SDS011;11055;50.870;4.316;2023-04-24T14:29:50;4.18;;;2.05;;
21786;SDS011;11055;50.870;4.316;2023-04-24T14:32:16;2.85;;;1.85;;
21786;SDS011;11055;50.870;4.316;2023-04-24T14:34:41;7.30;;;2.10;;
21786;SDS011;11055;50.870;4.316;2023-04-24T14:37:07;4.60;;;2.17;;
21786;SDS011;11055;50.870;4.316;2023-04-24T14:39:33;6.47;;;2.60;;
21786;SDS011;11055;50.870;4.316;2023-04-24T14:41:58;5.53;;;2.25;;
21786;SDS011;11055;50.870;4.316;2023-04-24T14:44:26;7.40;;;2.40;;
21786;SDS011;11055;50.870;4.316;2023-04-24T14:46:52;3.38;;;2.25;;
21786;SDS011;11055;50.870;4.316;2023-04-24T14:49:18;4.70;;;2.55;;
21786;SDS011;11055;50.870;4.316;2023-04-24T14:51:43;4.70;;;2.33;;
21786;SDS011;11055;50.870;4.316;2023-04-24T14:54:09;5.32;;;2.17;;